createdAt,value
2019-02-22T00:00:17.079Z,7.17
2019-02-22T00:02:43.660Z,7.25
2019-02-22T00:05:10.077Z,7.25
2019-02-22T00:07:36.782Z,7.26
2019-02-22T00:10:04.657Z,7.29
2019-02-22T00:12:31.237Z,7.33
2019-02-22T00:14:57.755Z,7.29
2019-02-22T00:17:24.245Z,7.22
2019-02-22T00:19:50.766Z,7.15
2019-02-22T00:22:17.132Z,7.10
2019-02-22T00:24:43.752Z,7.09
2019-02-22T00:27:10.137Z,7.10
2019-02-22T00:29:36.672Z,7.01
2019-02-22T00:32:03.367Z,7.14
2019-02-22T00:34:30.029Z,7.05
2019-02-22T00:36:56.869Z,6.99
2019-02-22T00:39:23.289Z,6.89
2019-02-22T00:41:49.713Z,6.95
2019-02-22T00:44:16.569Z,6.88
2019-02-22T00:46:42.972Z,6.88
2019-02-22T00:49:09.439Z,6.79
2019-02-22T00:51:35.716Z,6.72
2019-02-22T00:54:02.148Z,6.70
2019-02-22T00:56:28.705Z,6.74
2019-02-22T00:58:55.309Z,6.69
2019-02-22T01:01:21.794Z,6.59
2019-02-22T01:03:48.138Z,6.66
2019-02-22T01:06:15.061Z,6.64
2019-02-22T01:08:41.309Z,6.63
2019-02-22T01:11:08.521Z,6.67
2019-02-22T01:17:09.932Z,6.70
2019-02-22T01:19:36.487Z,6.72
2019-02-22T01:22:03.163Z,6.53
2019-02-22T01:24:35.288Z,6.42
2019-02-22T01:27:01.731Z,6.51
2019-02-22T01:29:28.081Z,6.57
2019-02-22T01:31:54.946Z,6.28
2019-02-22T01:34:21.327Z,6.27
2019-02-22T01:36:48.176Z,6.22
2019-02-22T01:39:14.845Z,6.29
2019-02-22T01:41:42.788Z,6.20
2019-02-22T01:44:18.100Z,6.27
2019-02-22T01:46:44.887Z,6.15
2019-02-22T01:49:11.427Z,6.11
2019-02-22T01:51:38.370Z,5.81
2019-02-22T01:54:04.680Z,5.63
2019-02-22T01:56:31.308Z,5.68
2019-02-22T01:58:57.844Z,5.64
2019-02-22T02:01:24.187Z,5.45
2019-02-22T02:03:50.609Z,5.32
2019-02-22T02:06:17.197Z,5.37
2019-02-22T02:08:43.704Z,5.41
2019-02-22T02:11:10.133Z,5.36
2019-02-22T02:13:36.552Z,5.24
2019-02-22T02:16:02.861Z,5.11
2019-02-22T02:18:29.204Z,5.23
2019-02-22T02:20:55.569Z,5.17
2019-02-22T02:23:21.924Z,5.20
2019-02-22T02:25:48.279Z,5.26
2019-02-22T02:28:14.691Z,5.33
2019-02-22T02:30:41.255Z,5.16
2019-02-22T02:33:07.784Z,5.25
2019-02-22T02:35:34.090Z,5.11
2019-02-22T02:38:00.744Z,4.93
2019-02-22T02:40:27.500Z,5.06
2019-02-22T02:42:53.841Z,5.05
2019-02-22T02:45:21.305Z,5.05
2019-02-22T02:47:47.722Z,5.13
2019-02-22T02:50:15.748Z,5.02
2019-02-22T02:52:42.097Z,4.95
2019-02-22T02:55:25.925Z,5.02
2019-02-22T02:57:52.432Z,4.80
2019-02-22T03:00:18.940Z,4.81
2019-02-22T03:02:45.258Z,4.79
2019-02-22T03:05:11.685Z,4.82
2019-02-22T03:07:39.877Z,4.83
2019-02-22T03:10:07.042Z,4.81
2019-02-22T03:12:33.281Z,4.78
2019-02-22T03:14:59.686Z,4.76
2019-02-22T03:17:26.083Z,4.74
2019-02-22T03:19:52.651Z,4.76
2019-02-22T03:22:19.032Z,4.77
2019-02-22T03:24:45.319Z,4.81
2019-02-22T03:27:11.805Z,4.75
2019-02-22T03:29:38.199Z,4.72
2019-02-22T03:32:04.622Z,4.59
2019-02-22T03:34:30.965Z,4.59
2019-02-22T03:36:57.705Z,4.62
2019-02-22T03:39:24.289Z,4.47
2019-02-22T03:41:50.662Z,4.53
2019-02-22T03:44:17.092Z,4.71
2019-02-22T03:46:43.485Z,4.65
2019-02-22T03:49:10.071Z,4.54
2019-02-22T03:51:36.765Z,4.49
2019-02-22T03:54:03.410Z,4.47
2019-02-22T03:56:29.932Z,4.43
2019-02-22T03:58:56.895Z,4.29
2019-02-22T04:01:23.477Z,4.34
2019-02-22T04:03:49.884Z,4.42
2019-02-22T04:06:16.153Z,4.34
2019-02-22T04:08:42.760Z,4.46
2019-02-22T04:11:09.265Z,4.50
2019-02-22T04:13:35.540Z,4.37
2019-02-22T04:16:01.980Z,4.39
2019-02-22T04:18:28.854Z,4.41
2019-02-22T04:20:56.930Z,4.38
2019-02-22T04:23:23.228Z,4.41
2019-02-22T04:25:51.284Z,4.22
2019-02-22T04:28:17.713Z,4.22
2019-02-22T04:30:44.210Z,4.15
2019-02-22T04:33:10.609Z,4.26
2019-02-22T04:35:37.095Z,4.29
2019-02-22T04:38:03.348Z,4.18
2019-02-22T04:40:29.693Z,4.17
2019-02-22T04:42:56.084Z,4.90
2019-02-22T04:45:23.118Z,5.62
2019-02-22T04:47:49.485Z,5.28
2019-02-22T04:50:16.260Z,4.91
2019-02-22T04:52:42.783Z,4.73
2019-02-22T04:55:09.211Z,4.52
2019-02-22T04:57:35.951Z,4.41
2019-02-22T05:00:03.221Z,4.36
2019-02-22T05:02:30.130Z,4.41
2019-02-22T05:04:56.841Z,4.34
2019-02-22T05:07:23.313Z,4.47
2019-02-22T05:09:49.850Z,4.34
2019-02-22T05:12:16.411Z,4.27
2019-02-22T05:14:42.714Z,4.35
2019-02-22T05:17:09.446Z,4.04
2019-02-22T05:19:36.043Z,4.14
2019-02-22T05:22:02.271Z,4.03
2019-02-22T05:24:29.031Z,4.02
2019-02-22T05:26:55.471Z,4.08
2019-02-22T05:29:22.853Z,4.22
2019-02-22T05:31:49.616Z,4.20
2019-02-22T05:34:16.209Z,4.01
2019-02-22T05:36:44.227Z,3.93
2019-02-22T05:42:45.957Z,3.91
2019-02-22T05:45:12.530Z,3.99
2019-02-22T05:47:39.391Z,3.99
2019-02-22T05:50:06.247Z,3.97
2019-02-22T05:52:32.861Z,4.03
2019-02-22T05:54:59.564Z,3.94
2019-02-22T05:57:25.912Z,3.88
2019-02-22T05:59:52.238Z,3.90
2019-02-22T06:02:18.797Z,3.83
2019-02-22T06:04:45.198Z,3.83
2019-02-22T06:07:14.463Z,3.78
2019-02-22T06:09:40.042Z,3.89
2019-02-22T06:12:06.270Z,3.80
2019-02-22T06:14:32.775Z,3.74
2019-02-22T06:16:59.428Z,3.83
2019-02-22T06:19:26.364Z,3.75
2019-02-22T06:21:52.820Z,3.78
2019-02-22T06:24:19.238Z,3.80
2019-02-22T06:26:45.579Z,3.85
2019-02-22T06:29:12.531Z,3.82
2019-02-22T06:31:39.043Z,3.78
2019-02-22T06:34:05.926Z,3.69
2019-02-22T06:36:32.304Z,3.76
2019-02-22T06:38:58.646Z,3.73
2019-02-22T06:41:25.111Z,3.77
2019-02-22T06:43:52.196Z,3.87
2019-02-22T06:46:19.083Z,3.86
2019-02-22T06:48:45.406Z,3.82
2019-02-22T06:51:11.829Z,3.78
2019-02-22T06:53:38.535Z,3.90
2019-02-22T06:56:04.924Z,3.91
2019-02-22T06:58:31.845Z,3.73
2019-02-22T07:00:58.369Z,4.02
2019-02-22T07:03:24.902Z,4.08
2019-02-22T07:05:51.201Z,3.91
2019-02-22T07:08:17.601Z,3.95
2019-02-22T07:11:04.214Z,3.93
2019-02-22T07:13:30.877Z,3.89
2019-02-22T07:15:57.400Z,4.01
2019-02-22T07:18:24.289Z,3.99
2019-02-22T07:20:50.836Z,3.90
2019-02-22T07:23:17.248Z,4.03
2019-02-22T07:25:43.684Z,3.93
2019-02-22T07:31:21.909Z,3.97
2019-02-22T07:33:48.447Z,4.03
2019-02-22T07:36:14.880Z,4.17
2019-02-22T07:38:41.615Z,4.09
2019-02-22T07:41:08.178Z,4.17
2019-02-22T07:43:34.571Z,4.16
2019-02-22T07:46:00.961Z,4.18
2019-02-22T07:48:27.839Z,4.28
2019-02-22T07:50:58.111Z,4.17
2019-02-22T07:53:22.479Z,4.23
2019-02-22T07:55:49.001Z,4.26
2019-02-22T07:58:15.892Z,4.26
2019-02-22T08:00:42.290Z,4.21
2019-02-22T08:03:08.749Z,4.20
2019-02-22T08:05:54.739Z,4.22
2019-02-22T08:08:22.715Z,4.16
2019-02-22T08:10:49.089Z,4.18
2019-02-22T08:13:19.792Z,4.21
2019-02-22T08:16:22.113Z,4.19
2019-02-22T08:19:01.411Z,4.33
2019-02-22T08:21:28.546Z,4.48
2019-02-22T08:23:54.884Z,4.39
2019-02-22T08:26:43.774Z,4.59
2019-02-22T08:29:07.748Z,4.63
2019-02-22T08:31:34.403Z,4.68
2019-02-22T08:34:01.313Z,4.54
2019-02-22T08:36:27.862Z,4.78
2019-02-22T08:38:54.104Z,4.68
2019-02-22T08:41:20.425Z,4.76
2019-02-22T08:43:46.808Z,4.71
2019-02-22T08:46:13.197Z,4.72
2019-02-22T08:48:39.804Z,4.74
2019-02-22T08:51:06.083Z,4.87
2019-02-22T08:53:32.401Z,4.77
2019-02-22T08:55:58.652Z,4.84
2019-02-22T08:58:25.084Z,4.87
2019-02-22T09:00:51.331Z,4.76
2019-02-22T09:03:17.539Z,4.75
2019-02-22T09:05:43.908Z,4.75
2019-02-22T09:08:10.205Z,4.75
2019-02-22T09:10:36.529Z,4.95
2019-02-22T09:13:02.900Z,4.89
2019-02-22T09:15:29.686Z,5.06
2019-02-22T09:17:56.318Z,5.03
2019-02-22T09:20:22.941Z,4.77
2019-02-22T09:22:49.397Z,4.75
2019-02-22T09:25:15.691Z,5.09
2019-02-22T09:27:42.073Z,4.98
2019-02-22T09:30:11.138Z,4.87
2019-02-22T09:32:37.460Z,4.93
2019-02-22T09:35:06.751Z,5.23
2019-02-22T09:37:33.135Z,5.20
2019-02-22T09:39:59.703Z,5.26
2019-02-22T09:42:26.196Z,5.59
2019-02-22T09:44:52.585Z,5.66
2019-02-22T09:47:18.878Z,5.90
2019-02-22T09:49:45.242Z,6.24
2019-02-22T09:52:11.671Z,6.31
2019-02-22T09:54:38.191Z,6.43
2019-02-22T09:57:05.033Z,6.51
2019-02-22T09:59:31.389Z,6.71
2019-02-22T10:01:58.113Z,6.63
2019-02-22T10:04:24.685Z,7.24
2019-02-22T10:06:51.250Z,7.46
2019-02-22T10:09:17.558Z,7.48
2019-02-22T10:11:44.166Z,7.67
2019-02-22T10:14:10.453Z,7.64
2019-02-22T10:16:36.920Z,7.37
2019-02-22T10:19:09.294Z,7.52
2019-02-22T10:21:35.590Z,7.78
2019-02-22T10:24:02.313Z,8.27
2019-02-22T10:30:08.148Z,8.41
2019-02-22T10:32:35.368Z,8.63
2019-02-22T10:35:01.972Z,8.93
2019-02-22T10:37:28.301Z,9.12
2019-02-22T10:39:55.921Z,9.31
2019-02-22T10:42:22.355Z,10.16
2019-02-22T10:44:49.061Z,9.65
2019-02-22T10:47:15.260Z,9.60
2019-02-22T10:49:41.750Z,10.19
2019-02-22T10:52:08.173Z,9.40
2019-02-22T10:54:34.607Z,8.80
2019-02-22T10:57:01.219Z,8.56
2019-02-22T10:59:27.660Z,8.37
2019-02-22T11:01:54.014Z,7.94
2019-02-22T11:04:20.400Z,7.75
2019-02-22T11:06:46.787Z,8.08
2019-02-22T11:09:14.474Z,9.24
2019-02-22T11:11:40.753Z,9.61
2019-02-22T11:14:07.339Z,10.52
2019-02-22T11:16:33.876Z,9.80
2019-02-22T11:19:00.154Z,9.71
2019-02-22T11:21:26.739Z,9.35
2019-02-22T11:23:53.217Z,9.76
2019-02-22T11:26:21.789Z,9.88
2019-02-22T11:28:48.111Z,9.20
2019-02-22T11:31:15.111Z,9.25
2019-02-22T11:33:41.970Z,10.03
2019-02-22T11:36:08.611Z,10.74
2019-02-22T11:38:44.986Z,10.44
2019-02-22T11:41:11.451Z,10.33
2019-02-22T11:43:38.075Z,9.97
2019-02-22T11:46:04.326Z,10.65
2019-02-22T11:48:30.847Z,11.39
2019-02-22T11:50:57.376Z,11.28
2019-02-22T11:53:23.711Z,11.38
2019-02-22T11:55:50.350Z,11.25
2019-02-22T11:58:17.211Z,11.93
2019-02-22T12:00:44.295Z,11.97
2019-02-22T12:03:23.608Z,10.97
2019-02-22T12:05:39.029Z,10.37
2019-02-22T12:08:05.498Z,9.50
2019-02-22T12:10:32.337Z,10.00
2019-02-22T12:12:58.557Z,9.52
2019-02-22T12:15:25.202Z,9.88
2019-02-22T12:17:51.659Z,9.53
2019-02-22T12:20:18.223Z,9.82
2019-02-22T12:22:44.823Z,9.69
2019-02-22T12:25:12.132Z,9.25
2019-02-22T12:27:38.768Z,8.53
2019-02-22T12:30:08.827Z,9.19
2019-02-22T12:32:35.334Z,9.19
2019-02-22T12:35:01.754Z,9.23
2019-02-22T12:37:28.035Z,9.07
2019-02-22T12:39:54.737Z,9.09
2019-02-22T12:42:21.116Z,9.35
2019-02-22T12:44:47.492Z,9.23
2019-02-22T12:47:13.754Z,9.07
2019-02-22T12:49:40.419Z,8.91
2019-02-22T12:52:06.764Z,8.93
2019-02-22T12:54:33.094Z,8.68
2019-02-22T12:56:59.600Z,8.45
2019-02-22T12:59:27.326Z,8.75
2019-02-22T13:01:53.811Z,8.55
2019-02-22T13:04:39.871Z,8.20
2019-02-22T13:07:19.438Z,7.64
2019-02-22T13:09:50.001Z,8.23
2019-02-22T13:12:17.382Z,8.15
2019-02-22T13:14:43.862Z,8.08
2019-02-22T13:17:10.509Z,8.03
2019-02-22T13:19:37.861Z,7.83
2019-02-22T13:22:04.897Z,7.79
2019-02-22T13:28:01.540Z,7.52
2019-02-22T13:30:27.963Z,7.05
2019-02-22T13:32:54.328Z,7.26
2019-02-22T13:35:20.871Z,7.02
2019-02-22T13:37:47.407Z,7.19
2019-02-22T13:40:15.151Z,7.25
2019-02-22T13:42:41.839Z,7.25
2019-02-22T13:45:09.942Z,6.90
2019-02-22T13:47:36.364Z,6.85
2019-02-22T13:50:05.851Z,6.76
2019-02-22T13:52:32.277Z,6.96
2019-02-22T13:54:58.668Z,7.13
2019-02-22T13:57:25.045Z,6.95
2019-02-22T13:59:51.438Z,7.01
2019-02-22T14:02:18.089Z,6.81
2019-02-22T14:04:44.608Z,6.73
2019-02-22T14:07:11.278Z,6.44
2019-02-22T14:09:37.741Z,6.19
2019-02-22T14:12:04.111Z,6.05
2019-02-22T14:14:32.487Z,6.22
2019-02-22T14:16:59.038Z,6.15
2019-02-22T14:19:27.447Z,6.19
2019-02-22T14:21:54.108Z,6.00
2019-02-22T14:24:20.702Z,5.90
2019-02-22T14:26:47.323Z,5.80
2019-02-22T14:29:13.789Z,5.71
2019-02-22T14:31:40.094Z,5.81
2019-02-22T14:34:06.595Z,6.02
2019-02-22T14:36:33.253Z,5.98
2019-02-22T14:38:59.767Z,5.93
2019-02-22T14:41:28.013Z,5.76
2019-02-22T14:43:54.785Z,5.86
2019-02-22T14:46:25.916Z,5.91
2019-02-22T14:48:49.326Z,5.61
2019-02-22T14:51:16.038Z,5.42
2019-02-22T14:53:42.332Z,5.30
2019-02-22T14:56:08.805Z,5.26
2019-02-22T14:58:35.197Z,5.42
2019-02-22T15:01:01.527Z,5.39
2019-02-22T15:03:28.357Z,5.33
2019-02-22T15:05:55.137Z,5.31
2019-02-22T15:08:21.466Z,5.33
2019-02-22T15:10:48.172Z,5.31
2019-02-22T15:13:16.741Z,5.03
2019-02-22T15:16:00.224Z,5.34
2019-02-22T15:18:19.737Z,5.18
2019-02-22T15:20:46.105Z,5.02
2019-02-22T15:23:12.393Z,5.11
2019-02-22T15:25:39.132Z,5.12
2019-02-22T15:28:05.863Z,4.84
2019-02-22T15:30:32.139Z,4.63
2019-02-22T15:32:58.572Z,4.58
2019-02-22T15:35:25.182Z,4.89
2019-02-22T15:37:51.793Z,5.00
2019-02-22T15:40:18.703Z,4.73
2019-02-22T15:42:45.225Z,4.86
2019-02-22T15:45:15.863Z,4.77
2019-02-22T15:47:42.509Z,4.50
2019-02-22T15:50:12.422Z,4.47
2019-02-22T15:52:39.291Z,4.09
2019-02-22T15:55:06.897Z,4.00
2019-02-22T15:57:33.372Z,3.94
2019-02-22T16:00:02.608Z,4.08
2019-02-22T16:02:29.026Z,4.29
2019-02-22T16:04:57.661Z,4.45
2019-02-22T16:07:24.049Z,4.50
2019-02-22T16:09:50.310Z,4.48
2019-02-22T16:12:16.727Z,4.20
2019-02-22T16:14:43.478Z,4.20
2019-02-22T16:17:09.938Z,4.30
2019-02-22T16:19:36.622Z,4.24
2019-02-22T16:22:03.419Z,4.10
2019-02-22T16:24:29.993Z,4.12
2019-02-22T16:27:02.195Z,4.14
2019-02-22T16:29:28.753Z,4.22
2019-02-22T16:31:55.290Z,4.08
2019-02-22T16:34:24.615Z,4.13
2019-02-22T16:36:56.470Z,3.88
2019-02-22T16:39:23.582Z,3.89
2019-02-22T16:41:51.493Z,3.73
2019-02-22T16:44:19.018Z,3.62
2019-02-22T16:46:50.197Z,3.77
2019-02-22T16:49:17.014Z,3.41
2019-02-22T16:51:43.607Z,3.46
2019-02-22T16:54:10.075Z,3.43
2019-02-22T16:56:37.109Z,3.35
2019-02-22T16:59:04.830Z,3.21
2019-02-22T17:01:31.856Z,3.04
2019-02-22T17:03:58.643Z,3.02
2019-02-22T17:06:25.137Z,3.01
2019-02-22T17:08:51.562Z,3.09
2019-02-22T17:11:17.993Z,2.95
2019-02-22T17:13:44.609Z,2.91
2019-02-22T17:16:16.636Z,2.97
2019-02-22T17:18:43.811Z,3.17
2019-02-22T17:21:10.383Z,3.45
2019-02-22T17:23:37.337Z,3.32
2019-02-22T17:26:04.733Z,3.11
2019-02-22T17:28:31.325Z,3.18
2019-02-22T17:30:57.699Z,3.41
2019-02-22T17:33:24.193Z,3.48
2019-02-22T17:35:50.778Z,3.26
2019-02-22T17:38:17.464Z,3.21
2019-02-22T17:40:44.061Z,2.91
2019-02-22T17:43:10.514Z,2.89
2019-02-22T17:45:36.864Z,2.85
2019-02-22T17:48:03.319Z,2.88
2019-02-22T17:50:29.780Z,2.94
2019-02-22T17:52:56.188Z,2.71
2019-02-22T17:55:22.739Z,2.64
2019-02-22T17:57:49.110Z,2.56
2019-02-22T18:03:38.576Z,2.39
2019-02-22T18:06:05.375Z,2.53
2019-02-22T18:08:32.664Z,2.54
2019-02-22T18:11:01.738Z,2.47
2019-02-22T18:13:28.764Z,2.45
2019-02-22T18:15:56.978Z,2.42
2019-02-22T18:18:23.312Z,2.72
2019-02-22T18:20:51.851Z,2.80
2019-02-22T18:23:18.959Z,2.98
2019-02-22T18:25:45.813Z,2.80
2019-02-22T18:28:12.808Z,2.76
2019-02-22T18:30:39.259Z,2.74
2019-02-22T18:33:05.777Z,2.73
2019-02-22T18:35:32.400Z,2.68
2019-02-22T18:37:59.021Z,2.62
2019-02-22T18:40:25.994Z,2.60
2019-02-22T18:42:52.622Z,2.55
2019-02-22T18:45:38.889Z,2.47
2019-02-22T18:48:06.779Z,2.10
2019-02-22T18:50:34.896Z,1.96
2019-02-22T18:53:01.744Z,2.09
2019-02-22T18:55:29.139Z,2.10
2019-02-22T18:57:55.924Z,2.00
2019-02-22T19:00:22.717Z,2.10
2019-02-22T19:02:49.326Z,1.87
2019-02-22T19:05:15.811Z,1.72
2019-02-22T19:07:42.249Z,1.72
2019-02-22T19:10:15.550Z,1.48
2019-02-22T19:12:42.016Z,1.49
2019-02-22T19:15:10.607Z,1.45
2019-02-22T19:20:48.353Z,1.43
2019-02-22T19:23:14.933Z,1.53
2019-02-22T19:25:41.763Z,1.50
2019-02-22T19:28:09.854Z,1.34
2019-02-22T19:30:36.176Z,1.52
2019-02-22T19:33:03.045Z,1.43
2019-02-22T19:35:30.372Z,1.41
2019-02-22T19:37:57.349Z,1.31
2019-02-22T19:40:28.599Z,1.13
2019-02-22T19:42:57.760Z,1.13
2019-02-22T19:45:27.572Z,1.23
2019-02-22T19:47:54.099Z,1.13
2019-02-22T19:50:21.570Z,1.14
2019-02-22T19:52:48.420Z,1.04
2019-02-22T19:55:17.172Z,0.91
2019-02-22T19:57:44.760Z,1.02
2019-02-22T20:00:19.167Z,0.93
2019-02-22T20:02:45.756Z,0.89
2019-02-22T20:05:15.846Z,0.88
2019-02-22T20:07:42.580Z,0.79
2019-02-22T20:10:18.166Z,0.86
2019-02-22T20:12:44.175Z,0.79
2019-02-22T20:15:12.937Z,0.80
2019-02-22T20:17:40.355Z,0.84
2019-02-22T20:20:13.485Z,0.98
2019-02-22T20:22:40.152Z,0.82
2019-02-22T20:25:07.802Z,0.84
2019-02-22T20:27:34.729Z,0.81
2019-02-22T20:30:01.408Z,0.78
2019-02-22T20:32:27.966Z,0.71
2019-02-22T20:34:55.593Z,0.79
2019-02-22T20:37:22.316Z,0.71
2019-02-22T20:39:48.707Z,0.75
2019-02-22T20:42:15.211Z,0.77
2019-02-22T20:44:41.999Z,0.71
2019-02-22T20:47:08.516Z,0.63
2019-02-22T20:49:36.059Z,0.79
2019-02-22T20:52:02.683Z,0.90
2019-02-22T20:54:29.374Z,0.97
2019-02-22T20:56:56.300Z,1.04
2019-02-22T20:59:22.852Z,1.06
2019-02-22T21:01:49.298Z,1.03
2019-02-22T21:04:15.959Z,1.03
2019-02-22T21:06:42.693Z,1.11
2019-02-22T21:09:09.331Z,1.22
2019-02-22T21:11:35.613Z,1.25
2019-02-22T21:14:02.155Z,1.32
2019-02-22T21:16:28.628Z,1.19
2019-02-22T21:18:55.431Z,1.12
2019-02-22T21:21:23.392Z,1.01
2019-02-22T21:23:52.048Z,1.04
2019-02-22T21:26:18.245Z,0.91
2019-02-22T21:28:44.586Z,0.92
2019-02-22T21:31:11.420Z,1.01
2019-02-22T21:33:38.151Z,0.78
2019-02-22T21:36:04.590Z,1.01
2019-02-22T21:38:31.036Z,0.95
2019-02-22T21:40:57.648Z,0.91
2019-02-22T21:43:24.176Z,0.76
2019-02-22T21:45:50.980Z,0.75
2019-02-22T21:48:27.243Z,0.58
2019-02-22T21:50:45.682Z,0.72
2019-02-22T21:53:12.076Z,0.82
2019-02-22T21:55:38.486Z,0.89
2019-02-22T21:58:05.305Z,0.73
2019-02-22T22:00:31.966Z,0.67
2019-02-22T22:02:58.329Z,0.91
2019-02-22T22:05:24.758Z,0.64
2019-02-22T22:07:54.127Z,0.68
2019-02-22T22:13:44.666Z,0.66
2019-02-22T22:16:11.574Z,0.73
2019-02-22T22:18:39.055Z,0.62
2019-02-22T22:21:05.608Z,0.76
2019-02-22T22:23:32.155Z,0.66
2019-02-22T22:25:59.024Z,0.57
2019-02-22T22:28:25.439Z,0.62
2019-02-22T22:30:52.146Z,0.51
2019-02-22T22:33:18.603Z,0.58
2019-02-22T22:35:48.003Z,0.64
2019-02-22T22:38:14.352Z,0.40
2019-02-22T22:40:40.845Z,0.49
2019-02-22T22:43:07.292Z,0.57
2019-02-22T22:45:33.729Z,0.54
2019-02-22T22:48:00.237Z,0.49
2019-02-22T22:50:26.499Z,0.45
2019-02-22T22:52:53.110Z,0.44
2019-02-22T22:55:19.464Z,0.42
2019-02-22T22:57:46.013Z,0.30
2019-02-22T23:00:39.679Z,0.37
2019-02-22T23:03:06.519Z,0.45
2019-02-22T23:05:37.558Z,0.45
2019-02-22T23:08:09.268Z,0.35
2019-02-22T23:10:50.508Z,0.46
2019-02-22T23:13:25.666Z,0.34
2019-02-22T23:15:56.132Z,0.27
2019-02-22T23:18:23.438Z,0.18
2019-02-22T23:20:50.465Z,0.23
2019-02-22T23:23:16.791Z,0.21
2019-02-22T23:25:43.061Z,0.24
2019-02-22T23:28:09.370Z,0.24
2019-02-22T23:30:35.885Z,0.16
2019-02-22T23:33:02.905Z,0.20
2019-02-22T23:35:29.263Z,0.15
2019-02-22T23:37:55.840Z,0.25
2019-02-22T23:40:22.342Z,0.14
2019-02-22T23:42:48.788Z,0.06
2019-02-22T23:45:15.621Z,0.07
2019-02-22T23:47:42.051Z,0.18
2019-02-22T23:50:15.746Z,0.06
2019-02-22T23:52:49.217Z,-0.03
2019-02-22T23:55:19.723Z,0.02
2019-02-22T23:57:54.318Z,0.01
